createdAt,value
2022-12-05T00:02:11.290Z,14.57
2022-12-05T00:04:39.839Z,14.03
2022-12-05T00:07:08.269Z,15.10
2022-12-05T00:09:36.342Z,14.17
2022-12-05T00:12:05.243Z,14.73
2022-12-05T00:14:33.541Z,15.13
2022-12-05T00:17:02.897Z,12.23
2022-12-05T00:19:32.153Z,14.67
2022-12-05T00:22:00.237Z,13.03
2022-12-05T00:24:28.274Z,12.90
2022-12-05T00:26:56.699Z,15.20
2022-12-05T00:29:24.854Z,14.23
2022-12-05T00:31:53.047Z,15.43
2022-12-05T00:34:23.030Z,19.10
2022-12-05T00:36:51.538Z,16.90
2022-12-05T00:39:19.597Z,17.07
2022-12-05T00:41:48.070Z,17.77
2022-12-05T00:44:16.381Z,18.70
2022-12-05T00:46:44.773Z,20.93
2022-12-05T00:49:13.988Z,18.27
2022-12-05T00:51:44.975Z,20.77
2022-12-05T00:54:15.991Z,22.13
2022-12-05T00:56:45.580Z,19.57
2022-12-05T00:59:17.734Z,21.07
2022-12-05T01:01:47.127Z,22.53
2022-12-05T01:04:18.077Z,20.20
2022-12-05T01:06:47.982Z,21.33
2022-12-05T01:09:17.877Z,20.27
2022-12-05T01:11:46.792Z,20.67
2022-12-05T01:14:16.309Z,21.50
2022-12-05T01:16:47.145Z,19.60
2022-12-05T01:19:17.757Z,20.57
2022-12-05T01:21:48.340Z,18.23
2022-12-05T01:24:17.895Z,20.40
2022-12-05T01:26:46.744Z,17.50
2022-12-05T01:29:17.367Z,17.50
2022-12-05T01:31:45.557Z,19.20
2022-12-05T01:34:16.693Z,18.47
2022-12-05T01:36:45.030Z,18.20
2022-12-05T01:39:15.085Z,17.40
2022-12-05T01:41:46.448Z,17.27
2022-12-05T01:44:52.241Z,18.80
2022-12-05T01:47:21.225Z,17.50
2022-12-05T01:49:49.119Z,18.03
2022-12-05T01:52:23.746Z,17.50
2022-12-05T01:54:57.753Z,20.27
2022-12-05T01:57:27.108Z,18.20
2022-12-05T02:00:05.022Z,19.50
2022-12-05T02:02:34.108Z,18.00
2022-12-05T02:05:07.167Z,19.37
2022-12-05T02:07:36.686Z,18.53
2022-12-05T02:10:07.526Z,18.93
2022-12-05T02:12:38.989Z,17.20
2022-12-05T02:15:21.991Z,18.30
2022-12-05T02:17:59.385Z,18.10
2022-12-05T02:20:39.897Z,18.60
2022-12-05T02:23:50.347Z,20.87
2022-12-05T02:26:47.564Z,19.40
2022-12-05T02:29:52.593Z,19.27
2022-12-05T02:32:34.523Z,17.53
2022-12-05T02:35:11.770Z,18.20
2022-12-05T02:37:45.518Z,18.20
2022-12-05T02:40:22.726Z,17.80
2022-12-05T02:42:56.859Z,17.97
2022-12-05T02:45:27.421Z,20.03
2022-12-05T02:47:57.129Z,19.90
2022-12-05T02:50:30.877Z,19.10
2022-12-05T02:53:03.815Z,20.33
2022-12-05T02:55:34.820Z,20.33
2022-12-05T02:58:06.471Z,18.33
2022-12-05T03:00:37.665Z,20.47
2022-12-05T03:03:15.723Z,17.60
2022-12-05T03:05:50.609Z,19.13
2022-12-05T03:08:23.259Z,20.30
2022-12-05T03:10:54.884Z,18.40
2022-12-05T03:13:28.192Z,17.07
2022-12-05T03:16:00.625Z,16.10
2022-12-05T03:18:31.960Z,18.53
2022-12-05T03:21:03.847Z,17.03
2022-12-05T03:23:35.594Z,15.40
2022-12-05T03:26:14.710Z,14.60
2022-12-05T03:28:55.856Z,16.23
2022-12-05T03:31:43.961Z,15.23
2022-12-05T03:34:19.613Z,16.57
2022-12-05T03:36:54.747Z,16.90
2022-12-05T03:39:25.335Z,16.37
2022-12-05T03:42:01.266Z,17.27
2022-12-05T03:44:37.511Z,16.03
2022-12-05T03:47:11.162Z,15.10
2022-12-05T03:49:45.702Z,17.23
2022-12-05T03:52:18.001Z,15.67
2022-12-05T03:54:49.253Z,20.23
2022-12-05T03:57:24.326Z,15.47
2022-12-05T03:59:58.766Z,17.87
2022-12-05T04:02:33.355Z,17.83
2022-12-05T04:05:07.906Z,17.10
2022-12-05T04:07:40.719Z,17.17
2022-12-05T04:10:12.833Z,15.67
2022-12-05T04:12:45.840Z,18.23
2022-12-05T04:15:18.387Z,18.27
2022-12-05T04:17:53.689Z,19.70
2022-12-05T04:20:45.269Z,18.73
2022-12-05T04:23:13.672Z,19.00
2022-12-05T04:25:51.223Z,17.87
2022-12-05T04:28:29.851Z,19.17
2022-12-05T04:31:05.040Z,17.73
2022-12-05T04:33:42.484Z,17.97
2022-12-05T04:36:16.513Z,18.70
2022-12-05T04:38:49.970Z,19.67
2022-12-05T04:41:23.896Z,18.30
2022-12-05T04:43:56.131Z,19.67
2022-12-05T04:46:25.574Z,19.83
2022-12-05T04:48:59.839Z,19.40
2022-12-05T04:51:34.815Z,20.63
2022-12-05T04:54:06.974Z,18.67
2022-12-05T04:56:39.134Z,18.63
2022-12-05T04:59:07.324Z,18.57
2022-12-05T05:01:38.981Z,18.57
2022-12-05T05:04:10.953Z,18.90
2022-12-05T05:06:41.158Z,19.20
2022-12-05T05:09:10.148Z,18.53
2022-12-05T05:11:38.800Z,16.37
2022-12-05T05:14:07.278Z,16.00
2022-12-05T05:16:38.123Z,19.90
2022-12-05T05:19:07.472Z,17.77
2022-12-05T05:21:37.679Z,17.70
2022-12-05T05:24:09.434Z,16.83
2022-12-05T05:26:39.803Z,19.60
2022-12-05T05:29:09.766Z,18.43
2022-12-05T05:31:39.325Z,19.23
2022-12-05T05:34:09.810Z,17.50
2022-12-05T05:36:39.417Z,18.33
2022-12-05T05:39:13.766Z,17.70
2022-12-05T05:41:42.322Z,16.90
2022-12-05T05:44:10.848Z,18.80
2022-12-05T05:46:39.738Z,19.07
2022-12-05T05:49:08.230Z,19.30
2022-12-05T05:51:36.239Z,17.57
2022-12-05T05:54:04.620Z,16.87
2022-12-05T05:56:34.061Z,18.83
2022-12-05T05:59:04.954Z,16.40
2022-12-05T06:01:33.341Z,16.20
2022-12-05T06:04:01.788Z,18.13
2022-12-05T06:06:30.200Z,17.17
2022-12-05T06:08:58.787Z,17.07
2022-12-05T06:11:28.947Z,16.30
2022-12-05T06:14:01.444Z,16.83
2022-12-05T06:16:30.844Z,17.97
2022-12-05T06:18:59.861Z,15.67
2022-12-05T06:21:28.363Z,16.20
2022-12-05T06:23:57.491Z,15.77
2022-12-05T06:26:26.430Z,16.97
2022-12-05T06:28:55.259Z,13.37
2022-12-05T06:31:28.471Z,14.00
2022-12-05T06:33:57.657Z,15.03
2022-12-05T06:36:26.906Z,15.80
2022-12-05T06:38:55.809Z,14.73
2022-12-05T06:41:24.771Z,14.47
2022-12-05T06:44:00.158Z,16.17
2022-12-05T06:46:31.843Z,14.90
2022-12-05T06:49:01.358Z,16.53
2022-12-05T06:51:29.509Z,17.60
2022-12-05T06:53:57.878Z,16.77
2022-12-05T06:56:26.206Z,16.03
2022-12-05T06:58:56.141Z,16.23
2022-12-05T07:01:41.328Z,16.30
2022-12-05T07:04:13.903Z,16.73
2022-12-05T07:06:48.681Z,16.20
2022-12-05T07:09:20.419Z,15.07
2022-12-05T07:11:49.536Z,15.17
2022-12-05T07:14:45.681Z,14.40
2022-12-05T07:17:07.155Z,17.87
2022-12-05T07:19:37.882Z,16.90
2022-12-05T07:22:09.497Z,16.10
2022-12-05T07:24:42.331Z,18.37
2022-12-05T07:27:10.893Z,15.63
2022-12-05T07:29:39.670Z,18.67
2022-12-05T07:32:08.567Z,17.93
2022-12-05T07:34:39.189Z,15.80
2022-12-05T07:37:08.349Z,14.10
2022-12-05T07:39:37.184Z,16.97
2022-12-05T07:42:05.962Z,16.10
2022-12-05T07:44:35.309Z,16.67
2022-12-05T07:47:03.808Z,15.90
2022-12-05T07:49:32.547Z,14.73
2022-12-05T07:52:02.262Z,17.70
2022-12-05T07:54:30.371Z,17.10
2022-12-05T07:56:58.940Z,15.07
2022-12-05T07:59:27.780Z,15.57
2022-12-05T08:01:56.278Z,14.70
2022-12-05T08:04:25.259Z,15.33
2022-12-05T08:06:53.780Z,14.70
2022-12-05T08:09:23.818Z,14.13
2022-12-05T08:11:52.889Z,14.27
2022-12-05T08:14:22.449Z,14.70
2022-12-05T08:16:51.380Z,13.97
2022-12-05T08:19:20.278Z,16.77
2022-12-05T08:21:49.125Z,14.90
2022-12-05T08:24:17.943Z,15.77
2022-12-05T08:26:47.744Z,15.37
2022-12-05T08:29:17.640Z,15.50
2022-12-05T08:31:48.543Z,16.13
2022-12-05T08:34:18.977Z,15.80
2022-12-05T08:36:47.792Z,16.97
2022-12-05T08:39:19.257Z,14.33
2022-12-05T08:41:50.093Z,17.13
2022-12-05T08:44:19.313Z,17.90
2022-12-05T08:46:50.227Z,18.67
2022-12-05T08:49:19.898Z,15.50
2022-12-05T08:51:48.399Z,15.97
2022-12-05T08:54:18.779Z,17.43
2022-12-05T08:56:51.406Z,15.97
2022-12-05T08:59:20.312Z,12.83
2022-12-05T09:01:51.564Z,13.70
2022-12-05T09:04:20.241Z,12.63
2022-12-05T09:06:48.422Z,14.40
2022-12-05T09:09:17.923Z,14.90
2022-12-05T09:11:49.528Z,13.20
2022-12-05T09:14:19.687Z,13.30
2022-12-05T09:16:48.824Z,12.73
2022-12-05T09:19:19.404Z,13.60
2022-12-05T09:21:48.202Z,13.70
2022-12-05T09:24:16.938Z,14.40
2022-12-05T09:26:46.494Z,13.80
2022-12-05T09:29:17.867Z,14.03
2022-12-05T09:31:51.758Z,14.63
2022-12-05T09:34:20.758Z,13.87
2022-12-05T09:37:05.720Z,12.90
2022-12-05T09:39:39.144Z,13.57
2022-12-05T09:42:24.283Z,12.30
2022-12-05T09:45:07.497Z,11.40
2022-12-05T09:47:49.215Z,11.83
2022-12-05T09:50:21.863Z,10.73
2022-12-05T09:53:01.548Z,11.20
2022-12-05T09:55:38.180Z,11.50
2022-12-05T09:58:14.044Z,13.23
2022-12-05T10:00:43.185Z,12.73
2022-12-05T10:03:23.729Z,11.97
2022-12-05T10:06:03.613Z,12.87
2022-12-05T10:08:40.353Z,15.47
2022-12-05T10:11:16.018Z,14.10
2022-12-05T10:13:54.408Z,10.97
2022-12-05T10:16:31.458Z,11.50
2022-12-05T10:19:06.307Z,11.33
2022-12-05T10:21:39.419Z,10.57
2022-12-05T10:24:13.620Z,11.90
2022-12-05T10:26:46.634Z,13.43
2022-12-05T10:29:25.118Z,11.67
2022-12-05T10:31:59.049Z,12.20
2022-12-05T10:34:33.498Z,12.07
2022-12-05T10:37:11.677Z,10.90
2022-12-05T10:39:40.247Z,10.90
2022-12-05T10:42:12.338Z,11.67
2022-12-05T10:44:41.307Z,10.50
2022-12-05T10:47:10.581Z,11.87
2022-12-05T10:49:40.837Z,9.70
2022-12-05T10:52:10.647Z,8.33
2022-12-05T10:54:45.986Z,8.90
2022-12-05T10:57:24.339Z,8.80
2022-12-05T10:59:53.446Z,8.80
2022-12-05T11:02:27.161Z,8.30
2022-12-05T11:04:58.786Z,8.07
2022-12-05T11:07:32.470Z,8.20
2022-12-05T11:10:03.698Z,7.60
2022-12-05T11:12:39.061Z,7.07
2022-12-05T11:15:27.197Z,8.73
2022-12-05T11:17:58.806Z,8.10
2022-12-05T11:20:43.941Z,7.57
2022-12-05T11:23:27.550Z,7.93
2022-12-05T11:25:56.647Z,8.30
2022-12-05T11:28:32.411Z,8.57
2022-12-05T11:31:03.095Z,9.17
2022-12-05T11:33:32.967Z,9.30
2022-12-05T11:36:09.156Z,8.70
2022-12-05T11:38:37.758Z,8.77
2022-12-05T11:41:23.645Z,7.73
2022-12-05T11:44:11.359Z,11.00
2022-12-05T11:46:57.647Z,8.80
2022-12-05T11:49:42.482Z,7.90
2022-12-05T11:52:24.334Z,7.53
2022-12-05T11:55:06.882Z,8.70
2022-12-05T11:58:01.887Z,9.67
2022-12-05T12:00:39.918Z,8.57
2022-12-05T12:03:37.955Z,11.50
2022-12-05T12:06:22.064Z,11.90
2022-12-05T12:09:07.359Z,12.17
2022-12-05T12:11:42.910Z,12.70
2022-12-05T12:14:21.423Z,11.23
2022-12-05T12:16:59.729Z,12.20
2022-12-05T12:19:53.603Z,11.10
2022-12-05T12:22:50.356Z,10.70
2022-12-05T12:25:42.667Z,11.90
2022-12-05T12:28:27.738Z,11.20
2022-12-05T12:31:08.005Z,9.80
2022-12-05T12:33:41.730Z,9.83
2022-12-05T12:36:17.999Z,8.83
2022-12-05T12:39:04.712Z,10.50
2022-12-05T12:42:05.759Z,10.23
2022-12-05T12:45:21.576Z,11.73
2022-12-05T12:48:05.036Z,11.27
2022-12-05T12:50:41.815Z,9.20
2022-12-05T12:53:37.471Z,10.43
2022-12-05T12:56:19.099Z,9.03
2022-12-05T12:58:56.367Z,11.00
2022-12-05T13:01:35.991Z,9.77
2022-12-05T13:04:14.915Z,9.70
2022-12-05T13:06:50.972Z,9.93
2022-12-05T13:09:24.767Z,10.40
2022-12-05T13:11:57.117Z,8.60
2022-12-05T13:14:29.359Z,8.90
2022-12-05T13:17:07.447Z,9.30
2022-12-05T13:19:45.051Z,9.40
2022-12-05T13:22:15.514Z,8.20
2022-12-05T13:24:45.647Z,8.97
2022-12-05T13:27:22.815Z,9.20
2022-12-05T13:30:04.134Z,10.10
2022-12-05T13:32:41.428Z,9.47
2022-12-05T13:35:39.279Z,10.00
2022-12-05T13:38:25.160Z,8.90
2022-12-05T13:41:13.076Z,9.50
2022-12-05T13:43:49.439Z,9.50
2022-12-05T13:46:31.718Z,7.60
2022-12-05T13:49:06.963Z,9.17
2022-12-05T13:51:38.493Z,8.30
2022-12-05T13:54:12.887Z,8.17
2022-12-05T13:56:53.912Z,8.97
2022-12-05T14:00:01.853Z,9.80
2022-12-05T14:02:51.428Z,9.87
2022-12-05T14:05:38.339Z,9.77
2022-12-05T14:08:48.198Z,9.60
2022-12-05T14:11:16.502Z,10.90
2022-12-05T14:13:46.305Z,10.93
2022-12-05T14:16:47.501Z,11.60
2022-12-05T14:19:52.672Z,10.57
2022-12-05T14:22:46.280Z,11.27
2022-12-05T14:25:26.512Z,11.37
2022-12-05T14:28:02.556Z,11.30
2022-12-05T14:30:44.498Z,11.20
2022-12-05T14:33:17.450Z,11.30
2022-12-05T14:35:51.943Z,10.60
2022-12-05T14:38:30.059Z,11.37
2022-12-05T14:41:12.773Z,10.70
2022-12-05T14:43:42.682Z,10.03
2022-12-05T14:46:22.476Z,10.23
2022-12-05T14:48:52.252Z,12.23
2022-12-05T14:51:47.291Z,10.97
2022-12-05T14:54:17.999Z,11.40
2022-12-05T14:56:49.733Z,12.23
2022-12-05T14:59:26.066Z,13.10
2022-12-05T15:01:57.515Z,10.93
2022-12-05T15:04:32.454Z,12.20
2022-12-05T15:07:06.190Z,13.07
2022-12-05T15:09:46.330Z,12.60
2022-12-05T15:12:18.062Z,13.00
2022-12-05T15:14:51.975Z,11.47
2022-12-05T15:17:26.599Z,13.17
2022-12-05T15:20:05.313Z,13.90
2022-12-05T15:22:39.264Z,14.93
2022-12-05T15:25:33.565Z,13.83
2022-12-05T15:28:07.156Z,14.37
2022-12-05T15:30:41.115Z,14.37
2022-12-05T15:33:13.858Z,12.83
2022-12-05T15:35:46.641Z,13.20
2022-12-05T15:38:27.454Z,11.27
2022-12-05T15:40:56.427Z,11.50
2022-12-05T15:43:33.041Z,15.70
2022-12-05T15:46:21.155Z,13.83
2022-12-05T15:48:49.220Z,14.17
2022-12-05T15:51:18.219Z,13.17
2022-12-05T15:53:51.336Z,12.10
2022-12-05T15:56:24.187Z,9.80
2022-12-05T15:58:57.594Z,10.10
2022-12-05T16:01:29.394Z,9.77
2022-12-05T16:04:04.351Z,9.30
2022-12-05T16:06:36.548Z,12.57
2022-12-05T16:09:11.713Z,11.57
2022-12-05T16:11:40.985Z,10.83
2022-12-05T16:14:09.652Z,10.70
2022-12-05T16:16:40.005Z,11.60
2022-12-05T16:19:16.359Z,12.17
2022-12-05T16:21:47.201Z,11.10
2022-12-05T16:24:21.691Z,11.00
2022-12-05T16:26:58.287Z,12.23
2022-12-05T16:29:29.047Z,13.27
2022-12-05T16:31:59.033Z,11.83
2022-12-05T16:34:28.856Z,11.73
2022-12-05T16:36:59.000Z,10.97
2022-12-05T16:39:29.817Z,11.53
2022-12-05T16:41:59.873Z,12.40
2022-12-05T16:45:04.151Z,12.50
2022-12-05T16:48:00.483Z,14.00
2022-12-05T16:50:33.468Z,12.60
2022-12-05T16:53:15.825Z,10.90
2022-12-05T16:55:46.812Z,12.17
2022-12-05T16:58:24.190Z,10.10
2022-12-05T17:00:53.861Z,10.07
2022-12-05T17:03:37.522Z,9.43
2022-12-05T17:06:10.042Z,10.40
2022-12-05T17:08:38.885Z,9.73
2022-12-05T17:11:11.678Z,8.80
2022-12-05T17:13:40.731Z,10.23
2022-12-05T17:16:09.872Z,10.57
2022-12-05T17:18:41.567Z,10.37
2022-12-05T17:21:15.894Z,10.20
2022-12-05T17:23:47.871Z,9.87
2022-12-05T17:26:21.464Z,9.30
2022-12-05T17:28:51.033Z,10.17
2022-12-05T17:31:21.337Z,9.67
2022-12-05T17:33:50.884Z,9.10
2022-12-05T17:36:21.110Z,8.73
2022-12-05T17:38:50.544Z,11.07
2022-12-05T17:41:23.289Z,9.13
2022-12-05T17:43:52.635Z,9.80
2022-12-05T17:46:23.486Z,11.20
2022-12-05T17:48:53.365Z,11.80
2022-12-05T17:51:22.441Z,10.50
2022-12-05T17:53:53.018Z,9.80
2022-12-05T17:56:23.162Z,10.10
2022-12-05T17:58:52.041Z,9.90
2022-12-05T18:01:21.916Z,10.20
2022-12-05T18:03:50.565Z,12.03
2022-12-05T18:06:19.981Z,11.87
2022-12-05T18:08:49.754Z,10.97
2022-12-05T18:11:18.104Z,12.17
2022-12-05T18:13:47.571Z,11.20
2022-12-05T18:16:16.131Z,11.97
2022-12-05T18:18:44.388Z,9.97
2022-12-05T18:21:14.702Z,11.30
2022-12-05T18:23:42.976Z,12.60
2022-12-05T18:26:12.754Z,13.20
2022-12-05T18:28:41.367Z,12.20
2022-12-05T18:31:13.962Z,11.40
2022-12-05T18:33:42.481Z,11.27
2022-12-05T18:36:12.837Z,11.27
2022-12-05T18:38:42.851Z,10.30
2022-12-05T18:41:12.013Z,11.40
2022-12-05T18:43:40.828Z,10.00
2022-12-05T18:46:11.130Z,9.70
2022-12-05T18:48:46.092Z,10.90
2022-12-05T18:51:17.557Z,10.80
2022-12-05T18:53:52.220Z,11.60
2022-12-05T18:56:24.603Z,12.93
2022-12-05T18:58:58.581Z,13.07
2022-12-05T19:01:30.937Z,11.70
2022-12-05T19:04:01.614Z,13.73
2022-12-05T19:06:31.547Z,14.07
2022-12-05T19:09:01.073Z,12.70
2022-12-05T19:11:30.291Z,11.53
2022-12-05T19:13:59.853Z,11.00
2022-12-05T19:16:31.963Z,9.90
2022-12-05T19:19:01.848Z,10.70
2022-12-05T19:21:32.514Z,11.70
2022-12-05T19:24:02.294Z,11.43
2022-12-05T19:26:30.705Z,10.03
2022-12-05T19:28:59.842Z,9.97
2022-12-05T19:31:30.833Z,11.67
2022-12-05T19:34:01.644Z,10.70
2022-12-05T19:36:32.261Z,10.50
2022-12-05T19:39:00.744Z,10.60
2022-12-05T19:41:31.499Z,12.50
2022-12-05T19:44:01.770Z,11.57
2022-12-05T19:46:33.563Z,10.90
2022-12-05T19:49:03.593Z,11.70
2022-12-05T19:51:32.826Z,11.73
2022-12-05T19:54:02.380Z,11.57
2022-12-05T19:56:32.198Z,12.53
2022-12-05T19:59:01.305Z,12.70
2022-12-05T20:01:33.272Z,12.03
2022-12-05T20:04:04.368Z,19.40
2022-12-05T20:06:34.636Z,13.80
2022-12-05T20:09:03.419Z,14.73
2022-12-05T20:11:32.322Z,13.33
2022-12-05T20:14:02.044Z,13.40
2022-12-05T20:16:33.899Z,13.40
2022-12-05T20:19:02.463Z,14.20
2022-12-05T20:21:32.606Z,14.20
2022-12-05T20:24:02.472Z,12.77
2022-12-05T20:26:33.065Z,11.93
2022-12-05T20:29:02.120Z,11.83
2022-12-05T20:31:33.512Z,11.20
2022-12-05T20:34:01.882Z,11.93
2022-12-05T20:36:31.823Z,13.93
2022-12-05T20:39:01.933Z,13.43
2022-12-05T20:41:30.932Z,10.97
2022-12-05T20:44:00.839Z,12.40
2022-12-05T20:46:29.603Z,9.90
2022-12-05T20:49:00.129Z,11.67
2022-12-05T20:51:31.065Z,9.63
2022-12-05T20:53:59.654Z,9.97
2022-12-05T20:56:29.359Z,9.03
2022-12-05T20:58:59.411Z,11.13
2022-12-05T21:01:29.518Z,10.50
2022-12-05T21:03:59.171Z,9.80
2022-12-05T21:06:30.646Z,9.10
2022-12-05T21:08:59.431Z,8.83
2022-12-05T21:11:29.114Z,10.30
2022-12-05T21:14:00.629Z,10.90
2022-12-05T21:16:29.112Z,10.00
2022-12-05T21:19:00.428Z,9.60
2022-12-05T21:21:29.932Z,8.67
2022-12-05T21:24:00.102Z,10.03
2022-12-05T21:26:30.272Z,8.40
2022-12-05T21:29:00.149Z,9.60
2022-12-05T21:31:30.868Z,10.80
2022-12-05T21:34:03.696Z,9.03
2022-12-05T21:36:33.763Z,9.90
2022-12-05T21:39:02.475Z,9.43
2022-12-05T21:41:30.675Z,9.33
2022-12-05T21:43:59.475Z,10.47
2022-12-05T21:46:28.023Z,10.27
2022-12-05T21:48:56.769Z,9.47
2022-12-05T21:51:26.823Z,10.53
2022-12-05T21:53:55.369Z,10.10
2022-12-05T21:56:25.513Z,10.33
2022-12-05T21:58:54.279Z,9.27
2022-12-05T22:01:24.978Z,10.47
2022-12-05T22:03:54.720Z,9.83
2022-12-05T22:06:23.143Z,9.60
2022-12-05T22:08:52.966Z,9.47
2022-12-05T22:11:22.594Z,10.33
2022-12-05T22:13:51.671Z,10.27
2022-12-05T22:16:20.658Z,10.60
2022-12-05T22:18:49.449Z,9.43
2022-12-05T22:21:19.627Z,8.90
2022-12-05T22:23:48.658Z,9.57
2022-12-05T22:26:19.630Z,8.70
2022-12-05T22:28:48.641Z,9.73
2022-12-05T22:31:17.913Z,9.33
2022-12-05T22:33:46.796Z,11.03
2022-12-05T22:36:17.038Z,11.33
2022-12-05T22:38:47.062Z,10.87
2022-12-05T22:41:18.319Z,12.07
2022-12-05T22:43:47.756Z,10.93
2022-12-05T22:46:18.362Z,11.00
2022-12-05T22:48:47.955Z,10.70
2022-12-05T22:51:16.974Z,11.10
2022-12-05T22:53:45.723Z,10.93
2022-12-05T22:56:15.400Z,10.57
2022-12-05T22:58:46.414Z,10.87
2022-12-05T23:01:16.444Z,9.50
2022-12-05T23:03:46.306Z,9.40
2022-12-05T23:06:16.288Z,9.70
2022-12-05T23:08:49.383Z,10.60
2022-12-05T23:11:19.057Z,10.00
2022-12-05T23:13:49.390Z,11.20
2022-12-05T23:16:21.367Z,10.80
2022-12-05T23:18:50.566Z,11.00
2022-12-05T23:21:21.422Z,10.90
2022-12-05T23:23:51.318Z,10.50
2022-12-05T23:26:21.622Z,10.43
2022-12-05T23:28:52.061Z,12.03
2022-12-05T23:31:21.021Z,12.30
2022-12-05T23:33:51.622Z,11.87
2022-12-05T23:36:20.442Z,11.47
2022-12-05T23:38:49.385Z,11.43
2022-12-05T23:41:20.205Z,11.33
2022-12-05T23:43:51.025Z,12.53
2022-12-05T23:46:21.743Z,11.13
2022-12-05T23:48:50.910Z,10.90
2022-12-05T23:51:21.276Z,12.70
2022-12-05T23:53:53.815Z,10.23
2022-12-05T23:56:25.225Z,11.53
2022-12-05T23:58:55.786Z,10.90
